createdAt,value
2022-12-23T00:01:19.353Z,99482.66
2022-12-23T00:03:45.985Z,99482.72
2022-12-23T00:06:15.613Z,99485.38
2022-12-23T00:08:42.874Z,99487.63
2022-12-23T00:11:28.704Z,99483.81
2022-12-23T00:14:21.469Z,99472.06
2022-12-23T00:16:50.353Z,99477.09
2022-12-23T00:19:17.091Z,99475.56
2022-12-23T00:21:43.683Z,99471.88
2022-12-23T00:24:11.756Z,99470.97
2022-12-23T00:26:38.649Z,99471.97
2022-12-23T00:29:05.202Z,99481.28
2022-12-23T00:31:32.367Z,99478.41
2022-12-23T00:33:59.021Z,99475.72
2022-12-23T00:36:30.332Z,99471.75
2022-12-23T00:39:17.102Z,99485.66
2022-12-23T00:42:17.748Z,99488.94
2022-12-23T00:44:44.399Z,99502.97
2022-12-23T00:47:32.285Z,99489.19
2022-12-23T00:49:58.805Z,99496.59
2022-12-23T00:52:25.427Z,99499.19
2022-12-23T00:54:51.967Z,99491.75
2022-12-23T00:57:18.486Z,99501.50
2022-12-23T00:59:44.997Z,99505.53
2022-12-23T01:02:31.756Z,99499.34
2022-12-23T01:05:17.066Z,99501.44
2022-12-23T01:07:43.697Z,99508.63
2022-12-23T01:10:10.523Z,99496.59
2022-12-23T01:12:37.078Z,99490.75
2022-12-23T01:15:03.996Z,99488.03
2022-12-23T01:17:30.502Z,99479.69
2022-12-23T01:19:57.095Z,99481.09
2022-12-23T01:22:23.677Z,99483.59
2022-12-23T01:24:50.206Z,99475.69
2022-12-23T01:27:16.744Z,99483.41
2022-12-23T01:29:43.309Z,99477.19
2022-12-23T01:32:09.883Z,99484.34
2022-12-23T01:34:37.663Z,99492.28
2022-12-23T01:37:04.934Z,99482.19
2022-12-23T01:39:31.471Z,99485.66
2022-12-23T01:42:16.683Z,99492.00
2022-12-23T01:44:52.124Z,99506.34
2022-12-23T01:47:23.446Z,99495.38
2022-12-23T01:49:50.834Z,99496.91
2022-12-23T01:52:17.696Z,99498.09
2022-12-23T01:54:44.787Z,99491.09
2022-12-23T01:57:12.773Z,99496.78
2022-12-23T01:59:59.053Z,99491.44
2022-12-23T02:02:45.326Z,99493.28
2022-12-23T02:05:12.291Z,99493.50
2022-12-23T02:07:58.495Z,99489.19
2022-12-23T02:10:32.355Z,99495.81
2022-12-23T02:13:28.157Z,99495.28
2022-12-23T02:16:18.836Z,99498.41
2022-12-23T02:19:06.963Z,99498.22
2022-12-23T02:21:58.143Z,99486.56
2022-12-23T02:24:36.330Z,99491.03
2022-12-23T02:27:11.165Z,99491.03
2022-12-23T02:29:49.416Z,99497.31
2022-12-23T02:32:34.756Z,99487.22
2022-12-23T02:35:10.421Z,99495.06
2022-12-23T02:37:55.785Z,99492.25
2022-12-23T02:40:24.934Z,99497.03
2022-12-23T02:43:17.553Z,99491.16
2022-12-23T02:45:52.495Z,99502.34
2022-12-23T02:48:41.865Z,99494.09
2022-12-23T02:51:09.671Z,99488.34
2022-12-23T02:53:43.152Z,99486.03
2022-12-23T02:56:10.657Z,99490.50
2022-12-23T02:58:54.649Z,99491.94
2022-12-23T03:01:21.296Z,99494.66
2022-12-23T03:03:48.268Z,99484.97
2022-12-23T03:06:40.183Z,99490.63
2022-12-23T03:09:07.481Z,99492.47
2022-12-23T03:11:50.760Z,99490.84
2022-12-23T03:14:46.674Z,99484.09
2022-12-23T03:17:41.178Z,99481.47
2022-12-23T03:20:19.683Z,99480.38
2022-12-23T03:22:57.758Z,99482.34
2022-12-23T03:25:32.729Z,99482.03
2022-12-23T03:28:20.293Z,99469.06
2022-12-23T03:30:50.766Z,99479.50
2022-12-23T03:33:22.791Z,99485.19
2022-12-23T03:35:53.999Z,99484.72
2022-12-23T03:38:21.969Z,99488.78
2022-12-23T03:41:01.862Z,99486.19
2022-12-23T03:43:40.516Z,99488.66
2022-12-23T03:46:24.241Z,99492.81
2022-12-23T03:48:54.413Z,99493.75
2022-12-23T03:51:25.387Z,99496.16
2022-12-23T03:53:57.612Z,99498.75
2022-12-23T03:56:38.283Z,99491.69
2022-12-23T03:59:28.684Z,99502.91
2022-12-23T04:02:04.376Z,99505.84
2022-12-23T04:04:48.024Z,99492.69
2022-12-23T04:07:28.000Z,99498.13
2022-12-23T04:09:54.778Z,99485.94
2022-12-23T04:12:23.399Z,99478.00
2022-12-23T04:14:50.365Z,99473.56
2022-12-23T04:17:17.445Z,99473.56
2022-12-23T04:19:47.783Z,99474.75
2022-12-23T04:22:15.463Z,99475.38
2022-12-23T04:24:42.732Z,99476.13
2022-12-23T04:27:12.976Z,99486.69
2022-12-23T04:29:39.602Z,99490.81
2022-12-23T04:32:06.312Z,99487.78
2022-12-23T04:34:32.853Z,99491.72
2022-12-23T04:36:59.429Z,99499.09
2022-12-23T04:39:25.931Z,99487.88
2022-12-23T04:41:52.475Z,99497.66
2022-12-23T04:44:19.007Z,99488.44
2022-12-23T04:46:45.636Z,99503.84
2022-12-23T04:49:12.165Z,99499.41
2022-12-23T04:51:38.728Z,99501.94
2022-12-23T04:54:05.438Z,99500.16
2022-12-23T04:56:31.970Z,99496.34
2022-12-23T04:59:01.539Z,99492.03
2022-12-23T05:01:28.924Z,99499.50
2022-12-23T05:03:55.776Z,99491.56
2022-12-23T05:06:22.324Z,99498.66
2022-12-23T05:08:48.915Z,99497.56
2022-12-23T05:11:15.483Z,99504.00
2022-12-23T05:13:42.020Z,99497.69
2022-12-23T05:16:08.656Z,99503.22
2022-12-23T05:18:35.173Z,99500.91
2022-12-23T05:21:01.835Z,99502.97
2022-12-23T05:23:28.438Z,99496.22
2022-12-23T05:25:55.032Z,99490.91
2022-12-23T05:28:22.186Z,99497.34
2022-12-23T05:30:48.903Z,99499.41
2022-12-23T05:33:15.802Z,99502.25
2022-12-23T05:35:42.442Z,99503.34
2022-12-23T05:38:09.087Z,99500.72
2022-12-23T05:40:35.690Z,99498.53
2022-12-23T05:43:02.707Z,99489.28
2022-12-23T05:45:29.306Z,99493.16
2022-12-23T05:47:55.925Z,99498.97
2022-12-23T05:50:26.453Z,99482.66
2022-12-23T05:52:55.818Z,99486.38
2022-12-23T05:55:22.356Z,99486.16
2022-12-23T05:57:48.895Z,99487.88
2022-12-23T06:00:15.710Z,99484.41
2022-12-23T06:02:42.965Z,99493.84
2022-12-23T06:05:11.293Z,99498.09
2022-12-23T06:07:38.665Z,99498.06
2022-12-23T06:10:06.935Z,99498.31
2022-12-23T06:12:33.629Z,99509.16
2022-12-23T06:15:00.207Z,99494.59
2022-12-23T06:17:26.958Z,99510.91
2022-12-23T06:19:53.639Z,99504.59
2022-12-23T06:22:23.506Z,99502.84
2022-12-23T06:24:51.115Z,99512.13
2022-12-23T06:27:19.268Z,99505.84
2022-12-23T06:29:46.068Z,99509.09
2022-12-23T06:32:12.601Z,99513.88
2022-12-23T06:34:39.138Z,99512.78
2022-12-23T06:37:05.715Z,99510.28
2022-12-23T06:39:32.347Z,99506.75
2022-12-23T06:41:58.927Z,99518.28
2022-12-23T06:44:25.458Z,99517.88
2022-12-23T06:46:52.168Z,99523.25
2022-12-23T06:49:18.723Z,99518.19
2022-12-23T06:51:45.244Z,99526.66
2022-12-23T06:54:12.148Z,99514.44
2022-12-23T06:56:39.157Z,99526.56
2022-12-23T06:59:05.684Z,99526.22
2022-12-23T07:01:32.361Z,99533.94
2022-12-23T07:03:59.007Z,99535.81
2022-12-23T07:06:25.717Z,99546.84
2022-12-23T07:08:52.297Z,99552.19
2022-12-23T07:11:18.834Z,99561.16
2022-12-23T07:13:46.177Z,99558.94
2022-12-23T07:16:12.730Z,99561.47
2022-12-23T07:18:39.329Z,99559.53
2022-12-23T07:21:10.162Z,99558.97
2022-12-23T07:23:42.254Z,99555.84
2022-12-23T07:26:08.750Z,99546.38
2022-12-23T07:28:35.397Z,99543.78
2022-12-23T07:31:01.955Z,99548.88
2022-12-23T07:33:28.539Z,99556.25
2022-12-23T07:35:59.166Z,99548.09
2022-12-23T07:38:26.033Z,99549.06
2022-12-23T07:40:52.557Z,99554.84
2022-12-23T07:43:19.092Z,99550.03
2022-12-23T07:45:45.793Z,99555.03
2022-12-23T07:48:12.384Z,99555.03
2022-12-23T07:50:38.916Z,99552.88
2022-12-23T07:53:05.489Z,99549.06
2022-12-23T07:55:31.979Z,99545.56
2022-12-23T07:57:58.490Z,99546.97
2022-12-23T08:00:25.180Z,99546.97
2022-12-23T08:02:51.799Z,99546.66
2022-12-23T08:05:18.781Z,99543.41
2022-12-23T08:07:45.462Z,99538.84
2022-12-23T08:10:12.522Z,99552.19
2022-12-23T08:12:39.025Z,99546.53
2022-12-23T08:15:06.592Z,99547.50
2022-12-23T08:17:33.166Z,99538.91
2022-12-23T08:19:59.720Z,99550.63
2022-12-23T08:22:26.279Z,99553.72
2022-12-23T08:24:53.238Z,99557.34
2022-12-23T08:27:19.812Z,99549.59
2022-12-23T08:29:46.421Z,99553.59
2022-12-23T08:32:13.033Z,99562.81
2022-12-23T08:34:39.574Z,99561.19
2022-12-23T08:37:06.297Z,99557.28
2022-12-23T08:39:32.955Z,99555.34
2022-12-23T08:41:59.688Z,99558.72
2022-12-23T08:44:28.276Z,99563.03
2022-12-23T08:46:55.342Z,99577.44
2022-12-23T08:49:22.089Z,99569.25
2022-12-23T08:51:49.132Z,99572.66
2022-12-23T08:54:15.917Z,99573.84
2022-12-23T08:56:45.145Z,99570.25
2022-12-23T08:59:27.892Z,99566.19
2022-12-23T09:01:56.768Z,99560.59
2022-12-23T09:04:23.513Z,99556.94
2022-12-23T09:06:50.075Z,99562.66
2022-12-23T09:09:16.793Z,99559.19
2022-12-23T09:11:43.747Z,99563.19
2022-12-23T09:14:11.162Z,99563.75
2022-12-23T09:16:37.872Z,99560.13
2022-12-23T09:19:04.773Z,99564.31
2022-12-23T09:21:33.361Z,99548.22
2022-12-23T09:23:59.914Z,99545.19
2022-12-23T09:26:28.963Z,99547.13
2022-12-23T09:28:56.295Z,99551.72
2022-12-23T09:31:23.640Z,99556.19
2022-12-23T09:33:52.312Z,99551.25
2022-12-23T09:36:19.207Z,99557.03
2022-12-23T09:38:46.717Z,99553.63
2022-12-23T09:41:40.264Z,99549.19
2022-12-23T09:44:34.218Z,99552.19
2022-12-23T09:47:06.233Z,99544.94
2022-12-23T09:49:33.868Z,99547.81
2022-12-23T09:52:06.266Z,99547.44
2022-12-23T09:54:46.105Z,99550.97
2022-12-23T09:57:36.543Z,99552.75
2022-12-23T10:00:07.062Z,99543.94
2022-12-23T10:02:52.223Z,99544.56
2022-12-23T10:05:56.830Z,99538.06
2022-12-23T10:08:39.545Z,99538.72
2022-12-23T10:11:19.093Z,99539.88
2022-12-23T10:13:52.851Z,99535.72
2022-12-23T10:16:25.702Z,99532.03
2022-12-23T10:19:22.865Z,99531.59
2022-12-23T10:21:52.795Z,99529.31
2022-12-23T10:24:25.178Z,99542.69
2022-12-23T10:26:51.631Z,99535.28
2022-12-23T10:29:20.499Z,99530.06
2022-12-23T10:32:11.581Z,99532.91
2022-12-23T10:34:44.214Z,99535.84
2022-12-23T10:37:13.850Z,99531.63
2022-12-23T10:40:13.927Z,99531.66
2022-12-23T10:42:43.655Z,99534.88
2022-12-23T10:45:12.983Z,99536.84
2022-12-23T10:48:14.777Z,99538.16
2022-12-23T10:51:00.317Z,99533.78
2022-12-23T10:53:40.996Z,99535.63
2022-12-23T10:56:08.653Z,99541.16
2022-12-23T10:58:40.472Z,99546.84
2022-12-23T11:01:14.975Z,99542.28
2022-12-23T11:03:49.371Z,99542.41
2022-12-23T11:06:16.072Z,99545.31
2022-12-23T11:08:42.603Z,99541.22
2022-12-23T11:11:09.164Z,99535.44
2022-12-23T11:13:41.130Z,99550.13
2022-12-23T11:16:15.217Z,99547.81
2022-12-23T11:18:57.527Z,99549.78
2022-12-23T11:21:24.107Z,99552.00
2022-12-23T11:24:16.949Z,99548.28
2022-12-23T11:26:45.792Z,99555.59
2022-12-23T11:29:36.286Z,99542.28
2022-12-23T11:32:15.267Z,99546.31
2022-12-23T11:34:45.202Z,99556.31
2022-12-23T11:37:25.436Z,99558.50
2022-12-23T11:39:52.038Z,99558.72
2022-12-23T11:42:24.464Z,99550.91
2022-12-23T11:44:52.702Z,99549.06
2022-12-23T11:47:22.260Z,99550.03
2022-12-23T11:49:54.006Z,99551.22
2022-12-23T11:52:22.929Z,99557.78
2022-12-23T11:54:58.336Z,99563.75
2022-12-23T11:57:32.336Z,99555.69
2022-12-23T12:00:02.282Z,99548.34
2022-12-23T12:02:40.174Z,99559.72
2022-12-23T12:05:22.640Z,99551.19
2022-12-23T12:07:50.222Z,99545.78
2022-12-23T12:10:28.535Z,99550.69
2022-12-23T12:13:03.312Z,99551.34
2022-12-23T12:15:43.421Z,99541.75
2022-12-23T12:18:14.627Z,99552.75
2022-12-23T12:20:45.372Z,99546.34
2022-12-23T12:23:17.212Z,99534.38
2022-12-23T12:25:58.153Z,99532.63
2022-12-23T12:28:29.741Z,99540.38
2022-12-23T12:31:05.377Z,99543.38
2022-12-23T12:33:36.001Z,99541.34
2022-12-23T12:36:11.962Z,99546.56
2022-12-23T12:38:40.071Z,99541.97
2022-12-23T12:41:28.249Z,99545.03
2022-12-23T12:44:23.702Z,99546.75
2022-12-23T12:47:04.168Z,99544.56
2022-12-23T12:49:49.814Z,99542.63
2022-12-23T12:52:21.808Z,99549.03
2022-12-23T12:55:00.503Z,99543.38
2022-12-23T12:57:35.071Z,99542.84
2022-12-23T13:00:06.479Z,99543.06
2022-12-23T13:02:55.184Z,99544.06
2022-12-23T13:05:53.933Z,99542.75
2022-12-23T13:08:21.044Z,99542.56
2022-12-23T13:10:56.035Z,99544.44
2022-12-23T13:13:54.670Z,99550.84
2022-12-23T13:16:24.208Z,99546.41
2022-12-23T13:18:58.675Z,99542.81
2022-12-23T13:21:40.459Z,99541.56
2022-12-23T13:24:24.490Z,99537.69
2022-12-23T13:27:12.303Z,99544.31
2022-12-23T13:30:07.007Z,99552.66
2022-12-23T13:32:39.544Z,99543.78
2022-12-23T13:35:34.095Z,99547.56
2022-12-23T13:38:48.205Z,99535.47
2022-12-23T13:41:34.603Z,99536.59
2022-12-23T13:44:05.241Z,99543.75
2022-12-23T13:46:52.911Z,99540.69
2022-12-23T13:50:13.489Z,99552.94
2022-12-23T13:53:07.449Z,99554.44
2022-12-23T13:56:10.001Z,99552.59
2022-12-23T13:58:38.952Z,99550.53
2022-12-23T14:01:08.555Z,99559.63
2022-12-23T14:03:37.020Z,99554.41
2022-12-23T14:06:23.446Z,99560.38
2022-12-23T14:08:51.066Z,99560.06
2022-12-23T14:11:25.549Z,99564.41
2022-12-23T14:13:52.091Z,99558.59
2022-12-23T14:16:40.221Z,99561.25
2022-12-23T14:19:34.202Z,99560.94
2022-12-23T14:22:28.720Z,99559.72
2022-12-23T14:25:13.856Z,99558.63
2022-12-23T14:28:01.754Z,99559.91
2022-12-23T14:30:38.742Z,99560.78
2022-12-23T14:33:24.079Z,99565.09
2022-12-23T14:36:12.834Z,99559.97
2022-12-23T14:38:39.484Z,99572.78
2022-12-23T14:41:23.025Z,99567.69
2022-12-23T14:43:55.681Z,99564.44
2022-12-23T14:46:34.102Z,99574.78
2022-12-23T14:49:29.959Z,99571.97
2022-12-23T14:51:50.896Z,99565.19
2022-12-23T14:54:18.183Z,99563.50
2022-12-23T14:56:47.444Z,99562.06
2022-12-23T14:59:29.977Z,99560.19
2022-12-23T15:02:22.979Z,99578.19
2022-12-23T15:04:55.259Z,99583.41
2022-12-23T15:07:28.472Z,99581.47
2022-12-23T15:10:01.343Z,99586.03
2022-12-23T15:12:34.572Z,99580.41
2022-12-23T15:15:05.428Z,99572.44
2022-12-23T15:17:37.232Z,99572.09
2022-12-23T15:20:13.799Z,99576.25
2022-12-23T15:22:42.989Z,99583.84
2022-12-23T15:25:39.515Z,99580.03
2022-12-23T15:28:06.551Z,99581.56
2022-12-23T15:30:36.953Z,99583.94
2022-12-23T15:33:27.966Z,99572.34
2022-12-23T15:35:53.686Z,99587.53
2022-12-23T15:38:21.620Z,99586.91
2022-12-23T15:41:04.724Z,99595.03
2022-12-23T15:43:31.886Z,99600.03
2022-12-23T15:46:08.512Z,99596.63
2022-12-23T15:48:35.368Z,99592.38
2022-12-23T15:51:09.373Z,99593.19
2022-12-23T15:53:38.279Z,99600.44
2022-12-23T15:56:10.512Z,99601.09
2022-12-23T15:58:39.974Z,99609.72
2022-12-23T16:01:07.077Z,99608.31
2022-12-23T16:03:39.657Z,99608.56
2022-12-23T16:06:31.933Z,99602.84
2022-12-23T16:09:01.951Z,99613.47
2022-12-23T16:11:50.405Z,99605.09
2022-12-23T16:14:35.722Z,99605.41
2022-12-23T16:17:08.157Z,99616.16
2022-12-23T16:19:46.327Z,99621.03
2022-12-23T16:22:27.097Z,99631.28
2022-12-23T16:24:56.698Z,99626.03
2022-12-23T16:27:50.536Z,99619.56
2022-12-23T16:30:31.084Z,99631.78
2022-12-23T16:32:59.675Z,99626.88
2022-12-23T16:35:36.601Z,99630.94
2022-12-23T16:38:21.508Z,99629.53
2022-12-23T16:40:50.395Z,99637.66
2022-12-23T16:43:18.991Z,99644.72
2022-12-23T16:45:47.071Z,99636.50
2022-12-23T16:48:16.565Z,99633.50
2022-12-23T16:50:43.126Z,99641.53
2022-12-23T16:53:13.760Z,99647.03
2022-12-23T16:55:46.244Z,99648.31
2022-12-23T16:58:17.059Z,99649.13
2022-12-23T17:00:43.714Z,99649.94
2022-12-23T17:03:15.929Z,99647.34
2022-12-23T17:05:42.901Z,99652.25
2022-12-23T17:08:10.343Z,99649.13
2022-12-23T17:10:38.125Z,99653.28
2022-12-23T17:13:04.713Z,99658.63
2022-12-23T17:15:31.340Z,99664.78
2022-12-23T17:17:58.052Z,99659.66
2022-12-23T17:20:24.827Z,99661.44
2022-12-23T17:22:53.810Z,99665.97
2022-12-23T17:25:26.328Z,99668.94
2022-12-23T17:27:53.670Z,99660.44
2022-12-23T17:30:22.747Z,99665.66
2022-12-23T17:32:55.900Z,99664.19
2022-12-23T17:35:23.440Z,99660.09
2022-12-23T17:37:50.182Z,99667.88
2022-12-23T17:40:17.789Z,99660.69
2022-12-23T17:42:45.335Z,99661.63
2022-12-23T17:45:31.099Z,99658.44
2022-12-23T17:47:57.946Z,99661.78
2022-12-23T17:50:24.911Z,99657.56
2022-12-23T17:52:52.550Z,99655.78
2022-12-23T17:55:23.127Z,99658.53
2022-12-23T17:57:50.270Z,99658.28
2022-12-23T18:00:25.444Z,99662.94
2022-12-23T18:02:58.311Z,99673.19
2022-12-23T18:05:27.734Z,99676.16
2022-12-23T18:07:55.596Z,99675.56
2022-12-23T18:10:25.130Z,99678.03
2022-12-23T18:13:03.553Z,99691.03
2022-12-23T18:15:33.093Z,99687.50
2022-12-23T18:17:59.671Z,99689.06
2022-12-23T18:20:26.503Z,99685.22
2022-12-23T18:22:54.380Z,99697.34
2022-12-23T18:25:25.930Z,99695.03
2022-12-23T18:27:53.805Z,99698.56
2022-12-23T18:30:21.421Z,99706.69
2022-12-23T18:32:48.997Z,99707.41
2022-12-23T18:35:33.012Z,99713.41
2022-12-23T18:38:00.183Z,99708.50
2022-12-23T18:40:32.552Z,99715.09
2022-12-23T18:42:59.680Z,99727.63
2022-12-23T18:45:37.858Z,99731.47
2022-12-23T18:48:08.623Z,99731.63
2022-12-23T18:50:38.587Z,99738.34
2022-12-23T18:53:06.314Z,99750.91
2022-12-23T18:55:33.272Z,99754.28
2022-12-23T18:58:00.657Z,99753.94
2022-12-23T19:00:32.841Z,99765.75
2022-12-23T19:02:59.556Z,99753.50
2022-12-23T19:05:28.257Z,99759.00
2022-12-23T19:07:58.933Z,99759.63
2022-12-23T19:10:28.944Z,99764.31
2022-12-23T19:12:56.191Z,99752.56
2022-12-23T19:15:23.719Z,99754.97
2022-12-23T19:17:50.588Z,99755.31
2022-12-23T19:20:20.345Z,99743.97
2022-12-23T19:22:48.665Z,99753.44
2022-12-23T19:25:18.857Z,99746.56
2022-12-23T19:27:46.144Z,99742.72
2022-12-23T19:30:25.461Z,99750.22
2022-12-23T19:32:53.357Z,99759.66
2022-12-23T19:35:20.777Z,99749.91
2022-12-23T19:37:47.312Z,99750.66
2022-12-23T19:40:13.916Z,99751.91
2022-12-23T19:42:41.800Z,99752.81
2022-12-23T19:45:09.794Z,99762.44
2022-12-23T19:47:36.831Z,99755.84
2022-12-23T19:50:05.217Z,99757.72
2022-12-23T19:52:31.834Z,99759.63
2022-12-23T19:54:58.332Z,99766.22
2022-12-23T19:57:24.920Z,99763.19
2022-12-23T19:59:54.662Z,99771.00
2022-12-23T20:02:21.208Z,99783.84
2022-12-23T20:04:47.776Z,99777.72
2022-12-23T20:07:14.360Z,99780.91
2022-12-23T20:09:40.915Z,99791.00
2022-12-23T20:12:07.861Z,99791.16
2022-12-23T20:14:34.716Z,99786.41
2022-12-23T20:17:01.485Z,99786.84
2022-12-23T20:19:28.306Z,99794.03
2022-12-23T20:21:55.007Z,99795.38
2022-12-23T20:24:21.606Z,99793.41
2022-12-23T20:26:48.173Z,99796.69
2022-12-23T20:29:15.213Z,99792.81
2022-12-23T20:31:43.695Z,99803.22
2022-12-23T20:34:15.945Z,99806.94
2022-12-23T20:36:42.690Z,99794.56
2022-12-23T20:39:10.939Z,99805.50
2022-12-23T20:41:39.705Z,99806.28
2022-12-23T20:44:34.028Z,99808.66
2022-12-23T20:46:55.268Z,99812.72
2022-12-23T20:49:21.829Z,99813.09
2022-12-23T20:51:48.401Z,99808.91
2022-12-23T20:54:14.938Z,99810.13
2022-12-23T20:56:42.399Z,99811.69
2022-12-23T20:59:08.978Z,99809.84
2022-12-23T21:01:38.306Z,99816.19
2022-12-23T21:04:07.925Z,99810.63
2022-12-23T21:06:34.947Z,99813.34
2022-12-23T21:09:04.160Z,99814.56
2022-12-23T21:11:33.649Z,99826.13
2022-12-23T21:14:06.852Z,99822.88
2022-12-23T21:16:36.103Z,99829.47
2022-12-23T21:19:03.399Z,99827.72
2022-12-23T21:21:31.689Z,99824.56
2022-12-23T21:24:00.521Z,99832.91
2022-12-23T21:26:28.850Z,99834.41
2022-12-23T21:28:59.199Z,99830.28
2022-12-23T21:31:26.679Z,99839.56
2022-12-23T21:33:55.111Z,99847.06
2022-12-23T21:36:25.736Z,99851.19
2022-12-23T21:38:52.535Z,99855.25
2022-12-23T21:41:21.609Z,99851.56
2022-12-23T21:43:50.105Z,99855.53
2022-12-23T21:46:19.212Z,99854.78
2022-12-23T21:48:46.451Z,99854.78
2022-12-23T21:51:16.303Z,99851.34
2022-12-23T21:53:45.494Z,99848.94
2022-12-23T21:56:14.488Z,99850.47
2022-12-23T21:58:41.467Z,99845.97
2022-12-23T22:01:14.000Z,99843.75
2022-12-23T22:03:41.470Z,99840.41
2022-12-23T22:06:17.114Z,99852.09
2022-12-23T22:08:43.836Z,99856.41
2022-12-23T22:11:16.192Z,99861.69
2022-12-23T22:13:43.752Z,99861.78
2022-12-23T22:16:14.930Z,99870.22
2022-12-23T22:18:41.927Z,99864.75
2022-12-23T22:21:11.199Z,99873.31
2022-12-23T22:23:38.195Z,99872.31
2022-12-23T22:26:05.568Z,99874.66
2022-12-23T22:28:33.276Z,99867.44
2022-12-23T22:31:09.056Z,99875.81
2022-12-23T22:33:35.634Z,99890.31
2022-12-23T22:36:02.316Z,99889.56
2022-12-23T22:38:28.913Z,99894.66
2022-12-23T22:40:57.764Z,99901.75
2022-12-23T22:43:24.466Z,99902.63
2022-12-23T22:45:58.743Z,99907.41
2022-12-23T22:48:26.522Z,99903.66
2022-12-23T22:51:03.109Z,99905.59
2022-12-23T22:53:30.199Z,99905.00
2022-12-23T22:55:58.340Z,99895.84
2022-12-23T22:58:25.088Z,99907.13
2022-12-23T23:00:51.691Z,99900.75
2022-12-23T23:03:18.265Z,99901.03
2022-12-23T23:05:44.851Z,99901.81
2022-12-23T23:08:12.326Z,99903.25
2022-12-23T23:10:38.866Z,99904.25
2022-12-23T23:13:05.535Z,99911.84
2022-12-23T23:15:34.317Z,99912.88
2022-12-23T23:18:00.805Z,99912.41
2022-12-23T23:20:27.443Z,99912.88
2022-12-23T23:22:53.977Z,99906.38
2022-12-23T23:25:22.717Z,99910.94
2022-12-23T23:27:49.312Z,99917.31
2022-12-23T23:30:16.155Z,99922.00
2022-12-23T23:32:43.404Z,99924.16
2022-12-23T23:35:11.041Z,99919.91
2022-12-23T23:37:37.753Z,99933.69
2022-12-23T23:40:04.902Z,99910.88
2022-12-23T23:42:31.461Z,99919.41
2022-12-23T23:44:58.195Z,99915.78
2022-12-23T23:47:24.803Z,99915.94
2022-12-23T23:49:51.404Z,99906.91
2022-12-23T23:52:17.949Z,99906.50
2022-12-23T23:54:44.559Z,99910.88
2022-12-23T23:57:11.159Z,99901.44
2022-12-23T23:59:37.716Z,99901.59
